Time;durP1;ratioP1;P1;durP2;ratioP2;P2;SDS_P1;SDS_P2;PMS_P1;PMS_P2;Temp;Humidity;BMP_temperature;BMP_pressure;BME280_temperature;BME280_humidity;BME280_pressure;Samples;Min_cycle;Max_cycle;Signal;HPM_P1;HPM_P2
2022/03/15 00:02:00;;;;;;;0.70;0.70;;;;;;;23.77;8.70;102051.19;5054630;28;20067;-80
2022/03/15 00:04:26;;;;;;;0.60;0.60;;;;;;;23.76;8.60;102054.97;5053929;28;21020;-80
2022/03/15 00:06:51;;;;;;;0.60;0.60;;;;;;;23.78;8.84;102063.78;5055843;28;20078;-80
2022/03/15 00:09:17;;;;;;;0.50;0.50;;;;;;;23.76;8.81;102067.78;5054694;28;20021;-80
2022/03/15 00:11:43;;;;;;;0.52;0.52;;;;;;;23.75;8.82;102060.66;5053242;28;20025;-80
2022/03/15 00:14:09;;;;;;;0.60;0.60;;;;;;;23.48;8.50;102019.34;5036820;28;20029;-80
2022/03/15 00:16:34;;;;;;;0.70;0.70;;;;;;;23.74;8.62;102062.56;5054125;28;20108;-80
2022/03/15 00:19:03;;;;;;;0.60;0.60;;;;;;;23.74;8.33;102068.03;5053915;28;20021;-79
2022/03/15 00:21:28;;;;;;;0.65;0.60;;;;;;;23.75;8.64;102061.50;5054534;28;20055;-81
2022/03/15 00:23:54;;;;;;;0.60;0.60;;;;;;;23.76;8.48;102065.88;5054164;28;20375;-80
2022/03/15 00:26:19;;;;;;;0.55;0.55;;;;;;;23.74;8.58;102062.56;5053940;28;20418;-81
2022/03/15 00:28:45;;;;;;;0.50;0.50;;;;;;;23.75;8.55;102069.72;5053103;28;20036;-80
2022/03/15 00:31:10;;;;;;;0.50;0.50;;;;;;;23.76;8.46;102071.34;5054121;28;20024;-80
2022/03/15 00:33:36;;;;;;;0.65;0.65;;;;;;;23.75;8.34;102060.66;5053830;28;20383;-79
2022/03/15 00:36:02;;;;;;;0.60;0.60;;;;;;;23.73;8.52;102060.94;5054231;28;20033;-80
2022/03/15 00:38:28;;;;;;;0.50;0.50;;;;;;;23.73;8.55;102060.94;5054133;28;20025;-80
2022/03/15 00:40:53;;;;;;;0.50;0.50;;;;;;;23.70;8.45;102061.38;5054014;28;20071;-79
2022/03/15 00:43:18;;;;;;;0.40;0.40;;;;;;;23.72;8.36;102064.72;5053799;28;20488;-79
2022/03/15 00:45:44;;;;;;;0.50;0.50;;;;;;;23.75;8.54;102060.66;5053965;28;20036;-79
2022/03/15 00:48:09;;;;;;;0.60;0.60;;;;;;;23.74;8.49;102062.56;5054052;28;20025;-81
2022/03/15 00:50:36;;;;;;;0.60;0.60;;;;;;;23.73;8.28;102057.34;5053992;28;20029;-81
2022/03/15 00:53:03;;;;;;;0.47;0.47;;;;;;;23.72;8.66;102050.25;5036218;28;20028;-80
2022/03/15 00:55:28;;;;;;;0.70;0.70;;;;;;;23.70;8.27;102053.19;5053930;28;20029;-81
2022/03/15 00:57:55;;;;;;;0.60;0.60;;;;;;;23.68;8.62;102058.06;5052302;28;20044;-81
2022/03/15 01:00:21;;;;;;;0.60;0.60;;;;;;;23.70;8.38;102053.19;5051975;28;20032;-80
2022/03/15 01:02:48;;;;;;;0.50;0.50;;;;;;;23.69;8.41;102051.53;5053808;28;20025;-80
2022/03/15 01:05:13;;;;;;;0.60;0.60;;;;;;;23.69;8.53;102059.72;5053046;28;20048;-80
2022/03/15 01:07:39;;;;;;;0.40;0.40;;;;;;;23.68;8.62;102055.34;5053813;28;20076;-81
2022/03/15 01:10:05;;;;;;;0.50;0.50;;;;;;;23.70;8.49;102050.47;5058823;22;20098;-68
2022/03/15 01:12:30;;;;;;;0.60;0.60;;;;;;;23.72;8.30;102053.78;5053196;28;20100;-68
2022/03/15 01:14:55;;;;;;;0.50;0.50;;;;;;;23.70;8.43;102052.34;5053356;28;20036;-69
2022/03/15 01:17:21;;;;;;;0.50;0.50;;;;;;;23.70;8.43;102049.63;5053291;28;20463;-68
2022/03/15 01:19:46;;;;;;;0.50;0.50;;;;;;;23.70;8.36;102055.06;5053199;28;20029;-69
2022/03/15 01:22:11;;;;;;;0.47;0.47;;;;;;;23.68;8.43;102052.63;5053083;28;20383;-69
2022/03/15 01:24:37;;;;;;;0.40;0.40;;;;;;;23.67;8.30;102058.31;5051742;28;20029;-68
2022/03/15 01:27:02;;;;;;;0.43;0.43;;;;;;;23.68;8.27;102060.81;5053240;28;20025;-68
2022/03/15 01:29:28;;;;;;;0.40;0.40;;;;;;;23.68;8.21;102058.06;5053402;28;20032;-68
2022/03/15 01:31:54;;;;;;;0.50;0.50;;;;;;;23.67;8.26;102041.94;5053817;28;20033;-69
2022/03/15 01:34:22;;;;;;;0.75;0.50;;;;;;;23.68;8.40;102049.03;5054134;28;20478;-68
2022/03/15 01:36:48;;;;;;;0.50;0.50;;;;;;;23.65;8.40;102047.63;5053456;28;20464;-68
2022/03/15 01:39:13;;;;;;;0.40;0.40;;;;;;;23.66;8.09;102052.00;5053389;28;20051;-68
2022/03/15 01:41:39;;;;;;;0.40;0.40;;;;;;;23.67;8.30;102048.22;5053251;28;20060;-68
2022/03/15 01:44:21;;;;;;;0.73;0.60;;;;;;;23.67;8.36;102045.47;5053841;28;20021;-69
2022/03/15 01:46:47;;;;;;;0.40;0.40;;;;;;;23.68;8.12;102041.69;5069894;28;20025;-69
2022/03/15 01:49:12;;;;;;;0.50;0.50;;;;;;;23.65;8.46;102036.69;5054828;28;20452;-68
2022/03/15 01:51:40;;;;;;;0.50;0.50;;;;;;;23.67;8.43;102041.94;5055456;28;20033;-68
2022/03/15 01:54:08;;;;;;;0.50;0.50;;;;;;;23.62;8.31;102040.72;5055412;28;20022;-69
2022/03/15 01:56:34;;;;;;;0.40;0.40;;;;;;;23.56;8.14;102028.03;5055345;28;20042;-68
2022/03/15 01:59:00;;;;;;;0.50;0.50;;;;;;;23.64;7.98;102037.75;5057493;28;20033;-69
2022/03/15 02:01:25;;;;;;;0.50;0.50;;;;;;;23.64;8.24;102040.47;5055172;28;20450;-69
2022/03/15 02:03:51;;;;;;;0.65;0.40;;;;;;;23.59;8.13;102032.16;5053120;28;20033;-70
2022/03/15 02:06:16;;;;;;;0.50;0.50;;;;;;;23.64;8.11;102045.94;5052996;28;20463;-68
2022/03/15 02:08:43;;;;;;;0.52;0.50;;;;;;;23.62;8.02;102043.44;5052585;28;20033;-68
2022/03/15 02:11:09;;;;;;;0.85;0.70;;;;;;;23.63;8.03;102044.28;5052493;28;20455;-68
2022/03/15 02:13:35;;;;;;;0.65;0.65;;;;;;;23.60;7.88;102051.03;5056683;28;20029;-68
2022/03/15 02:16:01;;;;;;;1.45;0.47;;;;;;;23.65;8.19;102049.53;5056032;28;20033;-68
2022/03/15 02:18:28;;;;;;;0.45;0.45;;;;;;;23.62;7.98;102059.81;5056260;28;20028;-68
2022/03/15 02:20:54;;;;;;;0.50;0.50;;;;;;;23.62;8.02;102059.00;5056414;28;20025;-70
2022/03/15 02:23:20;;;;;;;0.50;0.50;;;;;;;23.60;7.95;102061.13;5055853;28;20518;-67
2022/03/15 02:25:45;;;;;;;0.30;0.30;;;;;;;23.59;8.10;102062.19;5056283;28;20025;-69
2022/03/15 02:28:10;;;;;;;0.50;0.50;;;;;;;23.62;8.07;102075.38;5056188;28;20035;-69
2022/03/15 02:30:36;;;;;;;0.50;0.50;;;;;;;23.62;8.04;102075.38;5055928;28;20036;-69
2022/03/15 02:33:01;;;;;;;0.43;0.43;;;;;;;23.61;8.27;102065.50;5056126;28;20029;-69
2022/03/15 02:35:27;;;;;;;0.47;0.47;;;;;;;23.62;8.00;102067.19;5054351;28;20033;-69
2022/03/15 02:37:52;;;;;;;0.40;0.40;;;;;;;23.55;8.23;102056.38;5055534;28;20021;-69
2022/03/15 02:40:17;;;;;;;0.30;0.30;;;;;;;23.60;8.02;102063.88;5055791;28;20033;-69
2022/03/15 02:42:43;;;;;;;0.43;0.43;;;;;;;23.61;7.94;102057.31;5055863;28;20025;-68
2022/03/15 02:45:10;;;;;;;0.43;0.43;;;;;;;23.60;7.90;102052.94;5055535;28;20490;-69
2022/03/15 02:47:36;;;;;;;0.50;0.50;;;;;;;23.59;8.10;102054.00;5055957;28;20025;-69
2022/03/15 02:50:01;;;;;;;0.40;0.40;;;;;;;23.57;7.94;102050.69;5055410;28;20044;-68
2022/03/15 02:52:28;;;;;;;0.50;0.50;;;;;;;23.56;7.95;102054.47;5055573;28;20028;-69
2022/03/15 02:54:55;;;;;;;0.55;0.55;;;;;;;23.58;7.94;102053.19;5055584;28;20028;-69
2022/03/15 02:57:24;;;;;;;0.30;0.30;;;;;;;23.58;7.68;102052.34;5055705;28;20021;-68
2022/03/15 02:59:50;;;;;;;0.63;0.63;;;;;;;23.54;7.87;102041.06;5055453;28;20095;-68
2022/03/15 03:02:16;;;;;;;0.40;0.40;;;;;;;23.60;7.95;102050.22;5053969;28;20463;-69
2022/03/15 03:04:42;;;;;;;0.73;0.40;;;;;;;23.59;7.71;102054.00;5055264;28;20059;-69
2022/03/15 03:07:07;;;;;;;0.50;0.50;;;;;;;23.58;7.82;102047.72;5055459;28;20108;-69
2022/03/15 03:09:33;;;;;;;0.50;0.50;;;;;;;23.59;7.92;102051.28;5055130;28;20378;-69
2022/03/15 03:11:58;;;;;;;0.40;0.40;;;;;;;23.56;8.02;102051.72;5015542;28;20034;-69
2022/03/15 03:14:24;;;;;;;0.52;0.50;;;;;;;23.56;7.94;102041.66;5015515;28;20034;-68
2022/03/15 03:16:50;;;;;;;0.40;0.40;;;;;;;23.56;7.89;102043.53;5013962;28;20030;-68
2022/03/15 03:19:16;;;;;;;0.30;0.30;;;;;;;23.58;7.72;102046.91;5015358;28;20030;-68
2022/03/15 03:21:42;;;;;;;0.55;0.40;;;;;;;23.53;7.74;102039.41;5015452;28;20492;-69
2022/03/15 03:24:08;;;;;;;0.40;0.40;;;;;;;23.56;7.71;102049.00;5015336;28;20076;-68
2022/03/15 03:26:36;;;;;;;0.40;0.40;;;;;;;23.50;7.82;102039.88;5015429;28;20021;-71
2022/03/15 03:29:01;;;;;;;0.40;0.40;;;;;;;23.53;7.58;102049.50;5015263;28;20473;-70
2022/03/15 03:31:29;;;;;;;0.40;0.40;;;;;;;23.52;7.72;102045.91;5015363;28;20033;-71
2022/03/15 03:33:54;;;;;;;0.40;0.40;;;;;;;23.52;7.75;102042.38;5015061;28;20030;-70
2022/03/15 03:36:20;;;;;;;0.40;0.40;;;;;;;23.54;7.87;102040.22;5015099;28;20037;-71
2022/03/15 03:38:45;;;;;;;0.50;0.50;;;;;;;23.54;7.87;102053.88;5014767;28;20029;-70
2022/03/15 03:41:11;;;;;;;0.60;0.50;;;;;;;23.55;7.88;102050.09;5015147;28;20026;-71
2022/03/15 03:43:36;;;;;;;0.30;0.30;;;;;;;23.48;7.73;102041.19;5013573;28;20034;-71
2022/03/15 03:46:02;;;;;;;0.50;0.50;;;;;;;23.52;7.55;102047.81;5014934;28;20030;-71
2022/03/15 03:48:27;;;;;;;0.40;0.30;;;;;;;23.52;7.63;102050.53;5015541;28;20022;-70
2022/03/15 03:50:53;;;;;;;0.30;0.30;;;;;;;23.54;7.53;102048.41;5014618;28;20096;-71
2022/03/15 03:53:19;;;;;;;0.47;0.47;;;;;;;23.52;7.72;102043.19;5015588;28;20057;-71
2022/03/15 03:55:44;;;;;;;0.50;0.50;;;;;;;23.54;7.72;102045.69;5014971;28;20030;-71
2022/03/15 03:58:10;;;;;;;0.40;0.40;;;;;;;23.54;7.70;102040.22;5014765;28;20022;-71
2022/03/15 04:00:36;;;;;;;0.30;0.30;;;;;;;23.54;7.70;102053.88;5014953;28;20049;-72
2022/03/15 04:03:01;;;;;;;0.40;0.40;;;;;;;23.51;7.78;102046.16;5014353;28;20088;-72
2022/03/15 04:05:30;;;;;;;0.40;0.40;;;;;;;23.47;7.51;102044.97;5014193;28;20033;-71
2022/03/15 04:07:59;;;;;;;0.43;0.43;;;;;;;23.50;7.45;102055.41;5014535;28;20026;-71
2022/03/15 04:10:25;;;;;;;0.65;0.40;;;;;;;23.56;7.29;102049.00;5028432;28;20052;-71
2022/03/15 04:12:51;;;;;;;0.40;0.40;;;;;;;23.35;7.46;102021.22;5054021;28;20483;-71
2022/03/15 04:15:16;;;;;;;0.60;0.60;;;;;;;23.58;7.52;102052.34;5054144;28;20036;-71
2022/03/15 04:17:42;;;;;;;1.45;0.32;;;;;;;23.57;7.65;102046.03;5054382;28;20021;-71
2022/03/15 04:20:08;;;;;;;0.20;0.20;;;;;;;23.66;7.45;102062.91;5054391;28;20028;-71
2022/03/15 04:22:34;;;;;;;0.40;0.35;;;;;;;23.69;7.62;102067.09;5054358;28;20025;-71
2022/03/15 04:24:59;;;;;;;0.43;0.43;;;;;;;23.72;7.49;102059.25;5054043;28;20032;-68
2022/03/15 04:27:25;;;;;;;0.47;0.47;;;;;;;23.76;7.60;102051.41;5054714;28;20021;-68
2022/03/15 04:29:50;;;;;;;0.30;0.30;;;;;;;23.80;7.65;102056.19;5054796;28;20476;-69
2022/03/15 04:32:16;;;;;;;0.45;0.40;;;;;;;23.83;7.61;102049.44;5053710;28;20043;-68
2022/03/15 04:34:41;;;;;;;0.50;0.45;;;;;;;23.83;7.63;102043.16;5053202;28;20037;-67
2022/03/15 04:37:07;;;;;;;0.32;0.32;;;;;;;23.88;7.25;102044.09;5053646;28;20024;-68
2022/03/15 04:39:33;;;;;;;0.30;0.30;;;;;;;23.92;7.39;102036.25;5054118;28;20036;-67
2022/03/15 04:41:58;;;;;;;0.47;0.43;;;;;;;23.95;7.53;102047.53;5053829;28;20032;-68
2022/03/15 04:44:24;;;;;;;0.35;0.35;;;;;;;23.98;7.41;102044.34;5052358;28;20021;-67
2022/03/15 04:46:49;;;;;;;0.52;0.43;;;;;;;24.00;7.52;102050.38;5053552;28;20033;-69
2022/03/15 04:49:14;;;;;;;0.45;0.45;;;;;;;24.06;7.37;102050.50;5052521;28;20028;-69
2022/03/15 04:51:40;;;;;;;0.30;0.30;;;;;;;24.07;7.39;102046.72;5053672;28;20051;-68
2022/03/15 04:54:05;;;;;;;0.20;0.20;;;;;;;24.09;7.18;102052.78;5053599;28;20043;-69
2022/03/15 04:56:31;;;;;;;0.40;0.40;;;;;;;24.13;7.57;102048.50;5053478;28;20431;-67
2022/03/15 04:58:56;;;;;;;0.50;0.50;;;;;;;24.13;7.23;102035.69;5053165;28;20029;-67
2022/03/15 05:01:22;;;;;;;0.40;0.40;;;;;;;24.22;7.35;102040.78;5052938;28;20036;-68
2022/03/15 05:03:47;;;;;;;0.75;0.40;;;;;;;24.22;7.32;102035.31;5052878;28;20025;-67
2022/03/15 05:06:13;;;;;;;0.40;0.40;;;;;;;24.25;7.50;102037.56;5052952;28;20021;-68
2022/03/15 05:08:38;;;;;;;0.43;0.40;;;;;;;24.27;7.26;102051.81;5052772;28;20021;-68
2022/03/15 05:11:06;;;;;;;0.30;0.30;;;;;;;24.28;7.42;102042.53;5052215;28;20432;-68
2022/03/15 05:13:45;;;;;;;0.40;0.40;;;;;;;24.32;7.43;102051.94;5052925;28;20029;-69
2022/03/15 05:16:16;;;;;;;0.40;0.40;;;;;;;24.34;7.39;102052.53;5052908;28;20025;-68
2022/03/15 05:18:43;;;;;;;0.52;0.50;;;;;;;24.36;7.60;102053.94;5052864;28;20040;-68
2022/03/15 05:21:08;;;;;;;0.40;0.40;;;;;;;24.37;7.25;102049.31;5052703;28;20037;-68
2022/03/15 05:23:34;;;;;;;0.50;0.50;;;;;;;24.37;7.42;102047.41;5052493;28;20028;-67
2022/03/15 05:26:00;;;;;;;0.50;0.40;;;;;;;24.37;7.15;102043.84;5052382;28;20203;-68
2022/03/15 05:28:25;;;;;;;0.32;0.32;;;;;;;24.42;7.38;102052.13;5052456;28;20029;-68
2022/03/15 05:30:51;;;;;;;0.40;0.40;;;;;;;24.43;7.36;102051.06;5052740;28;20032;-68
2022/03/15 05:33:16;;;;;;;0.40;0.40;;;;;;;24.45;7.16;102046.19;5053487;28;20025;-68
2022/03/15 05:35:42;;;;;;;0.50;0.50;;;;;;;24.44;7.27;102046.44;5051495;28;20025;-68
2022/03/15 05:38:07;;;;;;;0.40;0.40;;;;;;;24.34;7.28;102047.06;5052922;28;20020;-68
2022/03/15 05:40:33;;;;;;;0.50;0.50;;;;;;;24.46;7.03;102045.13;5052394;28;20028;-68
2022/03/15 05:42:58;;;;;;;0.38;0.38;;;;;;;24.52;7.00;102041.41;5052328;28;20026;-67
2022/03/15 05:45:25;;;;;;;0.40;0.40;;;;;;;24.51;7.49;102042.50;5052343;28;20075;-68
2022/03/15 05:47:50;;;;;;;0.43;0.43;;;;;;;24.55;7.40;102040.97;5055420;28;20104;-68
2022/03/15 05:50:16;;;;;;;0.50;0.50;;;;;;;24.59;7.48;102043.22;5057223;28;20025;-68
2022/03/15 05:52:41;;;;;;;0.77;0.40;;;;;;;24.63;7.17;102041.66;5056452;28;20371;-68
2022/03/15 05:55:07;;;;;;;0.40;0.40;;;;;;;24.63;7.15;102042.50;5056699;28;20029;-69
2022/03/15 05:57:32;;;;;;;0.40;0.40;;;;;;;24.64;7.00;102044.16;5056343;28;20107;-69
2022/03/15 05:59:58;;;;;;;0.50;0.50;;;;;;;24.67;7.13;102042.84;5056379;28;20028;-68
2022/03/15 06:02:23;;;;;;;0.45;0.45;;;;;;;24.72;7.50;102040.22;5055848;28;20025;-69
2022/03/15 06:04:49;;;;;;;0.40;0.40;;;;;;;24.67;7.29;102030.00;5055785;28;20416;-68
2022/03/15 06:07:14;;;;;;;0.47;0.47;;;;;;;24.77;7.53;102034.00;5055503;28;20420;-68
2022/03/15 06:09:40;;;;;;;1.65;0.35;;;;;;;24.82;7.39;102037.69;5055306;28;20063;-67
2022/03/15 06:12:07;;;;;;;0.57;0.57;;;;;;;24.79;7.19;102027.25;5055944;28;20117;-68
2022/03/15 06:14:32;;;;;;;0.40;0.30;;;;;;;24.84;7.24;102032.81;5055372;28;20033;-68
2022/03/15 06:16:58;;;;;;;0.30;0.30;;;;;;;24.89;7.40;102032.09;5055522;28;20021;-67
2022/03/15 06:19:23;;;;;;;0.38;0.38;;;;;;;24.98;7.59;102038.00;5054649;28;20029;-68
2022/03/15 06:21:48;;;;;;;1.92;0.35;;;;;;;24.97;7.64;102036.31;5055603;28;20017;-67
2022/03/15 06:24:14;;;;;;;0.50;0.50;;;;;;;25.01;7.48;102026.53;5055381;28;20017;-67
2022/03/15 06:26:39;;;;;;;1.88;0.60;;;;;;;25.03;7.38;102029.88;5055955;28;20036;-68
2022/03/15 06:29:05;;;;;;;1.08;0.28;;;;;;;25.01;7.56;102034.75;5055917;28;20034;-67
2022/03/15 06:31:31;;;;;;;2.22;0.50;;;;;;;24.88;7.49;102033.16;5055447;28;20422;-67
2022/03/15 06:33:58;;;;;;;0.40;0.40;;;;;;;25.04;7.31;102028.78;5055588;28;20048;-68
2022/03/15 06:36:23;;;;;;;0.50;0.50;;;;;;;25.04;7.62;102031.53;5055397;28;20040;-69
2022/03/15 06:38:49;;;;;;;0.40;0.40;;;;;;;25.05;7.36;102028.56;5055069;28;20339;-69
2022/03/15 06:41:15;;;;;;;0.52;0.50;;;;;;;25.05;7.39;102034.03;5055643;28;20032;-68
2022/03/15 06:43:40;;;;;;;0.40;0.40;;;;;;;25.06;7.36;102035.69;5055785;28;20025;-68
2022/03/15 06:46:07;;;;;;;1.13;0.50;;;;;;;25.07;7.43;102036.53;5055557;28;20024;-68
2022/03/15 06:48:33;;;;;;;0.50;0.50;;;;;;;25.12;7.58;102045.63;5054963;28;20106;-69
2022/03/15 06:50:58;;;;;;;1.08;0.77;;;;;;;25.12;7.57;102039.34;5055497;28;20033;-69
2022/03/15 06:53:24;;;;;;;0.75;0.70;;;;;;;25.18;7.62;102049.31;5055148;28;20029;-70
2022/03/15 06:55:49;;;;;;;0.45;0.40;;;;;;;25.17;7.67;102049.56;5055082;28;20079;-69
2022/03/15 06:58:15;;;;;;;0.60;0.60;;;;;;;25.14;7.74;102048.13;5054558;28;20116;-68
2022/03/15 07:00:42;;;;;;;0.80;0.57;;;;;;;25.20;7.34;102055.38;5054903;28;20021;-68
2022/03/15 07:03:07;;;;;;;1.30;0.70;;;;;;;25.24;7.35;102048.31;5054461;28;20032;-67
2022/03/15 07:05:33;;;;;;;0.52;0.50;;;;;;;25.27;7.52;102038.84;5055042;28;20086;-69
2022/03/15 07:07:58;;;;;;;1.00;0.85;;;;;;;25.29;7.67;102045.72;5055100;28;20459;-69
2022/03/15 07:10:24;;;;;;;2.95;0.77;;;;;;;25.32;7.71;102044.41;5054507;28;20053;-70
2022/03/15 07:12:49;;;;;;;1.00;0.70;;;;;;;25.32;7.46;102043.56;5054502;28;20025;-69
2022/03/15 07:15:16;;;;;;;1.90;0.70;;;;;;;25.33;7.56;102047.97;5055200;28;20035;-69
2022/03/15 07:17:49;;;;;;;1.40;0.63;;;;;;;25.34;7.32;102041.44;5054740;28;20029;-68
2022/03/15 07:20:15;;;;;;;1.55;0.80;;;;;;;25.34;7.46;102046.91;5054939;28;20032;-69
2022/03/15 07:22:41;;;;;;;1.60;0.90;;;;;;;25.36;7.44;102045.56;5054790;28;20027;-69
2022/03/15 07:25:07;;;;;;;0.65;0.60;;;;;;;25.35;7.68;102048.53;5054953;28;20029;-69
2022/03/15 07:27:32;;;;;;;1.27;0.82;;;;;;;25.29;7.36;102039.41;5055050;28;20456;-69
2022/03/15 07:29:57;;;;;;;1.13;0.80;;;;;;;25.38;7.51;102053.53;5054615;28;20032;-69
2022/03/15 07:32:23;;;;;;;2.97;0.98;;;;;;;25.41;7.46;102048.38;5055120;28;20021;-69
2022/03/15 07:34:49;;;;;;;1.75;1.00;;;;;;;25.38;7.48;102048.88;5054955;28;20391;-70
2022/03/15 07:37:15;;;;;;;2.25;1.20;;;;;;;25.41;7.50;102053.84;5055165;28;20051;-69
2022/03/15 07:39:40;;;;;;;1.38;0.80;;;;;;;25.44;7.48;102058.84;5054586;28;20033;-68
2022/03/15 07:42:05;;;;;;;1.92;1.40;;;;;;;25.23;7.88;102051.31;5054371;28;20328;-70
2022/03/15 07:44:31;;;;;;;1.05;0.75;;;;;;;25.34;7.72;102047.72;5053912;28;20025;-69
2022/03/15 07:46:56;;;;;;;0.63;0.63;;;;;;;25.44;7.78;102052.53;5052673;28;20081;-70
2022/03/15 07:49:22;;;;;;;1.52;0.85;;;;;;;25.46;7.95;102036.69;5054525;28;20027;-69
2022/03/15 07:51:48;;;;;;;0.95;0.70;;;;;;;25.39;7.76;102052.44;5054052;28;20025;-69
2022/03/15 07:54:13;;;;;;;0.88;0.70;;;;;;;25.49;7.83;102047.13;5054076;28;20422;-69
2022/03/15 07:56:39;;;;;;;0.93;0.90;;;;;;;25.37;7.70;102046.38;5053790;28;20114;-68
2022/03/15 07:59:04;;;;;;;0.77;0.65;;;;;;;25.46;7.88;102055.88;5054246;28;20170;-69
2022/03/15 08:01:30;;;;;;;0.80;0.80;;;;;;;25.54;7.82;102051.88;5054097;28;20025;-69
2022/03/15 08:03:55;;;;;;;1.50;0.90;;;;;;;25.51;7.78;102052.38;5054431;28;20025;-71
2022/03/15 08:06:21;;;;;;;2.22;1.17;;;;;;;25.48;7.75;102053.69;5054336;28;20428;-69
2022/03/15 08:08:48;;;;;;;2.28;1.00;;;;;;;25.55;7.64;102054.38;5053741;28;20025;-70
2022/03/15 08:11:13;;;;;;;3.15;0.90;;;;;;;25.52;7.70;102054.03;5052687;28;20086;-69
2022/03/15 08:13:39;;;;;;;3.03;1.27;;;;;;;25.57;7.59;102046.72;5053694;28;20021;-68
2022/03/15 08:16:05;;;;;;;2.33;1.25;;;;;;;25.61;8.02;102056.13;5054333;28;20479;-69
2022/03/15 08:18:31;;;;;;;2.97;1.20;;;;;;;25.63;8.20;102040.28;5053978;28;20126;-69
2022/03/15 08:20:58;;;;;;;1.58;1.10;;;;;;;25.67;7.86;102046.91;5054757;28;20021;-68
2022/03/15 08:23:24;;;;;;;2.75;1.15;;;;;;;25.68;8.19;102044.97;5053441;28;20126;-69
2022/03/15 08:25:49;;;;;;;2.83;1.13;;;;;;;25.69;8.07;102043.91;5054706;28;20025;-68
2022/03/15 08:28:14;;;;;;;1.50;1.20;;;;;;;25.71;8.26;102047.22;5054000;28;20463;-69
2022/03/15 08:30:40;;;;;;;1.10;0.95;;;;;;;25.75;8.29;102045.66;5053841;28;20328;-68
2022/03/15 08:33:05;;;;;;;2.22;1.05;;;;;;;25.77;8.30;102042.69;5054343;28;20025;-69
2022/03/15 08:35:31;;;;;;;1.33;1.10;;;;;;;25.80;8.21;102039.41;5054352;28;20032;-68
2022/03/15 08:37:56;;;;;;;1.63;1.08;;;;;;;25.72;8.44;102048.09;5054636;28;20100;-69
2022/03/15 08:40:22;;;;;;;3.58;1.42;;;;;;;25.80;8.22;102044.91;5054389;28;20361;-69
2022/03/15 08:42:48;;;;;;;3.15;0.93;;;;;;;25.73;8.33;102045.06;5053641;28;20021;-68
2022/03/15 08:45:13;;;;;;;1.90;1.10;;;;;;;25.82;8.14;102046.31;5053198;28;20028;-69
2022/03/15 08:47:39;;;;;;;2.00;1.23;;;;;;;25.80;8.44;102042.16;5053224;28;20404;-70
2022/03/15 08:50:05;;;;;;;2.03;1.30;;;;;;;25.88;8.43;102049.97;5052917;28;20036;-68
2022/03/15 08:52:31;;;;;;;2.30;1.30;;;;;;;25.89;8.62;102045.31;5053025;28;20029;-69
2022/03/15 08:54:56;;;;;;;1.40;1.00;;;;;;;25.84;8.33;102052.38;5054412;28;20040;-69
2022/03/15 08:57:25;;;;;;;1.70;1.00;;;;;;;25.77;8.69;102048.16;5055180;28;20110;-69
2022/03/15 08:59:50;;;;;;;2.72;1.48;;;;;;;25.76;8.50;102044.56;5053727;28;20025;-69
2022/03/15 09:02:17;;;;;;;1.33;1.20;;;;;;;25.99;8.63;102051.81;5053162;28;20024;-69
2022/03/15 09:04:43;;;;;;;3.35;1.23;;;;;;;25.97;8.76;102044.91;5053987;28;20025;-69
2022/03/15 09:07:08;;;;;;;1.85;1.40;;;;;;;25.91;8.71;102043.16;5053454;28;20021;-69
2022/03/15 09:09:34;;;;;;;2.35;0.93;;;;;;;25.88;8.77;102033.53;5053227;28;20103;-69
2022/03/15 09:11:59;;;;;;;1.35;1.13;;;;;;;25.97;8.44;102037.53;5053530;28;20025;-69
2022/03/15 09:14:24;;;;;;;2.83;1.20;;;;;;;25.98;8.49;102033.72;5052959;28;20378;-68
2022/03/15 09:16:50;;;;;;;1.27;1.00;;;;;;;25.91;8.71;102038.50;5053527;28;20042;-68
2022/03/15 09:19:15;;;;;;;1.25;1.10;;;;;;;25.88;8.80;102028.06;5054095;28;20033;-68
2022/03/15 09:21:41;;;;;;;1.80;1.42;;;;;;;25.95;8.77;102036.94;5056423;28;20033;-68
2022/03/15 09:24:06;;;;;;;1.33;1.23;;;;;;;25.99;9.01;102038.13;5058061;28;20467;-68
2022/03/15 09:26:32;;;;;;;1.27;1.10;;;;;;;25.99;8.86;102027.16;5057376;28;20063;-69
2022/03/15 09:28:57;;;;;;;1.42;1.15;;;;;;;26.05;8.74;102033.53;5057313;28;20043;-69
2022/03/15 09:31:23;;;;;;;1.20;0.95;;;;;;;26.08;8.74;102032.19;5056887;28;20033;-69
2022/03/15 09:33:48;;;;;;;1.40;1.10;;;;;;;26.04;8.99;102024.50;5056813;28;20021;-69
2022/03/15 09:36:15;;;;;;;1.27;1.17;;;;;;;26.12;9.03;102027.88;5056909;28;20375;-70
2022/03/15 09:38:40;;;;;;;1.98;1.40;;;;;;;26.09;8.87;102020.16;5056924;28;20037;-69
2022/03/15 09:41:06;;;;;;;1.70;1.38;;;;;;;26.12;8.95;102025.97;5055352;28;20541;-70
2022/03/15 09:43:35;;;;;;;2.13;1.20;;;;;;;26.10;8.94;102021.84;5056302;28;20079;-69
2022/03/15 09:46:01;;;;;;;1.55;1.35;;;;;;;26.12;8.88;102014.19;5056730;28;20021;-70
2022/03/15 09:48:27;;;;;;;1.30;1.20;;;;;;;26.11;8.87;102021.56;5054970;28;20060;-70
2022/03/15 09:50:52;;;;;;;2.33;1.50;;;;;;;26.13;8.84;102013.09;5054765;28;20029;-69
2022/03/15 09:53:18;;;;;;;1.30;1.20;;;;;;;26.14;8.71;102023.78;5056114;28;20029;-69
2022/03/15 09:55:47;;;;;;;1.45;1.35;;;;;;;26.15;8.97;102021.91;5056483;28;20107;-69
2022/03/15 09:58:13;;;;;;;2.55;1.25;;;;;;;26.09;9.06;102031.94;5055015;28;20040;-69
2022/03/15 10:00:39;;;;;;;1.30;1.10;;;;;;;26.13;9.12;102024.91;5056567;28;20440;-70
2022/03/15 10:03:04;;;;;;;1.92;1.48;;;;;;;26.13;9.01;102027.63;5057242;28;20021;-69
2022/03/15 10:05:30;;;;;;;1.23;1.13;;;;;;;26.14;8.91;102029.28;5056627;28;20028;-71
2022/03/15 10:07:55;;;;;;;1.55;1.27;;;;;;;26.18;9.05;102018.63;5056482;28;20037;-70
2022/03/15 10:10:20;;;;;;;1.35;1.10;;;;;;;26.20;9.02;102017.31;5054828;28;20140;-71
2022/03/15 10:12:46;;;;;;;1.85;1.40;;;;;;;26.22;9.34;102019.81;5054732;28;20028;-70
2022/03/15 10:15:21;;;;;;;1.55;1.42;;;;;;;26.07;9.64;102030.56;5056223;28;20364;-70
2022/03/15 10:17:48;;;;;;;1.48;1.38;;;;;;;26.15;9.32;102022.72;5056565;28;20062;-70
2022/03/15 10:20:15;;;;;;;1.63;1.30;;;;;;;26.15;9.32;102014.50;5056512;28;20017;-70
2022/03/15 10:22:50;;;;;;;1.50;1.40;;;;;;;26.19;9.54;102014.81;5056383;28;20129;-70
2022/03/15 10:25:16;;;;;;;3.05;1.40;;;;;;;26.24;9.42;102012.97;5056292;28;20074;-71
2022/03/15 10:27:41;;;;;;;1.40;1.30;;;;;;;26.17;9.63;102012.34;5055731;28;20033;-70
2022/03/15 10:30:08;;;;;;;1.60;1.50;;;;;;;26.28;9.48;102016.03;5056391;28;20083;-69
2022/03/15 10:32:33;;;;;;;1.70;1.40;;;;;;;26.26;9.62;102006.44;5055229;28;20095;-72
2022/03/15 10:35:09;;;;;;;2.08;1.48;;;;;;;26.24;9.53;102007.50;5055671;28;20419;-70
2022/03/15 10:37:35;;;;;;;2.00;1.80;;;;;;;26.27;9.73;102014.41;5055365;28;20448;-70
2022/03/15 10:40:02;;;;;;;1.70;1.60;;;;;;;26.10;9.77;101995.25;5054047;28;20025;-70
2022/03/15 10:42:27;;;;;;;10.77;5.95;;;;;;;26.20;10.12;102000.06;5055271;28;20045;-70
2022/03/15 10:44:53;;;;;;;7.05;3.97;;;;;;;26.29;9.99;102005.94;5056356;28;20458;-70
2022/03/15 10:47:20;;;;;;;6.95;3.28;;;;;;;26.20;9.99;102000.06;5055392;28;20028;-70
2022/03/15 10:50:04;;;;;;;2.47;1.92;;;;;;;26.20;10.07;102014.56;5055855;28;20066;-70
2022/03/15 10:52:34;;;;;;;;;;;;;;;26.58;9.51;102023.00;5056169;28;20446;-68
2022/03/15 10:55:17;;;;;;;2.38;1.77;;;;;;;26.42;9.73;102019.22;5055223;28;19909;-70
2022/03/15 10:57:48;;;;;;;2.47;2.17;;;;;;;26.28;10.52;102013.28;5055650;28;20021;-69
2022/03/15 11:00:15;;;;;;;1.80;1.70;;;;;;;26.24;10.43;102012.16;5054954;28;20027;-69
2022/03/15 11:02:44;;;;;;;2.78;2.10;;;;;;;26.24;10.20;102001.19;5055343;28;20078;-70
2022/03/15 11:05:10;;;;;;;2.53;1.60;;;;;;;26.24;10.31;102002.00;5055078;28;20031;-69
2022/03/15 11:07:41;;;;;;;3.75;1.77;;;;;;;26.30;10.07;102000.19;5056190;28;20029;-69
2022/03/15 11:10:11;;;;;;;2.03;1.83;;;;;;;26.28;10.24;102007.00;5055494;28;20549;-69
2022/03/15 11:12:38;;;;;;;2.40;2.00;;;;;;;26.31;10.24;102006.50;5055846;28;20045;-68
2022/03/15 11:15:04;;;;;;;2.83;2.20;;;;;;;26.30;10.16;102007.56;5055269;28;20029;-69
2022/03/15 11:17:31;;;;;;;4.03;1.88;;;;;;;26.31;10.20;102009.22;5055002;28;20096;-70
2022/03/15 11:19:58;;;;;;;2.28;1.90;;;;;;;26.26;10.24;102009.16;5053248;28;20028;-70
2022/03/15 11:22:30;;;;;;;1.77;1.60;;;;;;;26.27;10.17;102006.19;5054929;28;20021;-69
2022/03/15 11:25:08;;;;;;;2.63;1.70;;;;;;;26.30;10.33;101999.34;5055076;28;20040;-70
2022/03/15 11:27:36;;;;;;;2.08;1.85;;;;;;;26.29;10.33;101994.97;5054842;28;20116;-69
2022/03/15 11:30:05;;;;;;;2.15;1.95;;;;;;;26.30;10.36;101997.44;5053244;28;20017;-69